sensor_id;sensor_type;location;lat;lon;timestamp;P1;durP1;ratioP1;P2;durP2;ratioP2
32613;SDS011;19031;51.400;6.770;2023-02-28T00:01:13;10.20;;;3.33;;
32613;SDS011;19031;51.400;6.770;2023-02-28T00:03:39;7.38;;;3.08;;
32613;SDS011;19031;51.400;6.770;2023-02-28T00:06:05;5.65;;;2.55;;
32613;SDS011;19031;51.400;6.770;2023-02-28T00:08:32;5.47;;;2.78;;
32613;SDS011;19031;51.400;6.770;2023-02-28T00:11:01;9.48;;;2.70;;
32613;SDS011;19031;51.400;6.770;2023-02-28T00:13:27;7.85;;;3.05;;
32613;SDS011;19031;51.400;6.770;2023-02-28T00:16:03;6.10;;;2.45;;
32613;SDS011;19031;51.400;6.770;2023-02-28T00:18:30;3.42;;;2.15;;
32613;SDS011;19031;51.400;6.770;2023-02-28T00:20:57;8.30;;;3.13;;
32613;SDS011;19031;51.400;6.770;2023-02-28T00:23:22;4.55;;;2.33;;
32613;SDS011;19031;51.400;6.770;2023-02-28T00:25:48;4.65;;;2.47;;
32613;SDS011;19031;51.400;6.770;2023-02-28T00:28:14;4.50;;;2.63;;
32613;SDS011;19031;51.400;6.770;2023-02-28T00:30:40;5.38;;;2.67;;
32613;SDS011;19031;51.400;6.770;2023-02-28T00:33:06;3.60;;;2.10;;
32613;SDS011;19031;51.400;6.770;2023-02-28T00:35:31;5.40;;;2.85;;
32613;SDS011;19031;51.400;6.770;2023-02-28T00:37:57;5.30;;;3.25;;
32613;SDS011;19031;51.400;6.770;2023-02-28T00:40:22;5.63;;;3.13;;
32613;SDS011;19031;51.400;6.770;2023-02-28T00:42:48;7.68;;;2.95;;
32613;SDS011;19031;51.400;6.770;2023-02-28T00:45:13;4.90;;;2.88;;
32613;SDS011;19031;51.400;6.770;2023-02-28T00:47:39;8.30;;;2.28;;
32613;SDS011;19031;51.400;6.770;2023-02-28T00:50:05;5.55;;;2.80;;
32613;SDS011;19031;51.400;6.770;2023-02-28T00:52:31;4.22;;;2.65;;
32613;SDS011;19031;51.400;6.770;2023-02-28T00:54:56;3.45;;;2.28;;
32613;SDS011;19031;51.400;6.770;2023-02-28T00:57:22;8.18;;;2.72;;
32613;SDS011;19031;51.400;6.770;2023-02-28T00:59:47;6.28;;;4.15;;
32613;SDS011;19031;51.400;6.770;2023-02-28T01:02:13;9.48;;;2.90;;
32613;SDS011;19031;51.400;6.770;2023-02-28T01:04:39;2.67;;;2.15;;
32613;SDS011;19031;51.400;6.770;2023-02-28T01:07:04;7.03;;;3.42;;
32613;SDS011;19031;51.400;6.770;2023-02-28T01:09:30;4.75;;;2.95;;
32613;SDS011;19031;51.400;6.770;2023-02-28T01:11:55;4.78;;;1.92;;
32613;SDS011;19031;51.400;6.770;2023-02-28T01:14:21;5.60;;;2.72;;
32613;SDS011;19031;51.400;6.770;2023-02-28T01:16:47;4.57;;;2.45;;
32613;SDS011;19031;51.400;6.770;2023-02-28T01:19:12;4.75;;;1.65;;
32613;SDS011;19031;51.400;6.770;2023-02-28T01:21:38;20.67;;;3.67;;
32613;SDS011;19031;51.400;6.770;2023-02-28T01:24:04;4.88;;;2.63;;
32613;SDS011;19031;51.400;6.770;2023-02-28T01:26:30;3.05;;;2.00;;
32613;SDS011;19031;51.400;6.770;2023-02-28T01:28:56;6.50;;;2.47;;
32613;SDS011;19031;51.400;6.770;2023-02-28T01:31:23;4.50;;;2.28;;
32613;SDS011;19031;51.400;6.770;2023-02-28T01:33:49;2.65;;;1.70;;
32613;SDS011;19031;51.400;6.770;2023-02-28T01:36:16;6.65;;;2.97;;
32613;SDS011;19031;51.400;6.770;2023-02-28T01:38:43;5.15;;;2.75;;
32613;SDS011;19031;51.400;6.770;2023-02-28T01:41:11;3.28;;;2.00;;
32613;SDS011;19031;51.400;6.770;2023-02-28T01:46:09;3.78;;;2.28;;
32613;SDS011;19031;51.400;6.770;2023-02-28T01:48:36;5.68;;;2.45;;
32613;SDS011;19031;51.400;6.770;2023-02-28T01:51:06;8.55;;;2.92;;
32613;SDS011;19031;51.400;6.770;2023-02-28T01:53:38;2.70;;;1.92;;
32613;SDS011;19031;51.400;6.770;2023-02-28T01:56:09;5.28;;;2.38;;
32613;SDS011;19031;51.400;6.770;2023-02-28T01:58:37;3.78;;;1.83;;
32613;SDS011;19031;51.400;6.770;2023-02-28T02:01:03;7.95;;;1.98;;
32613;SDS011;19031;51.400;6.770;2023-02-28T02:03:29;6.28;;;2.33;;
32613;SDS011;19031;51.400;6.770;2023-02-28T02:05:55;2.25;;;1.02;;
32613;SDS011;19031;51.400;6.770;2023-02-28T02:08:22;2.70;;;1.63;;
32613;SDS011;19031;51.400;6.770;2023-02-28T02:11:00;5.40;;;2.28;;
32613;SDS011;19031;51.400;6.770;2023-02-28T02:13:34;4.82;;;2.22;;
32613;SDS011;19031;51.400;6.770;2023-02-28T02:16:11;3.28;;;1.73;;
32613;SDS011;19031;51.400;6.770;2023-02-28T02:22:20;2.22;;;1.40;;
32613;SDS011;19031;51.400;6.770;2023-02-28T02:25:09;8.25;;;1.58;;
32613;SDS011;19031;51.400;6.770;2023-02-28T02:28:02;4.28;;;1.40;;
32613;SDS011;19031;51.400;6.770;2023-02-28T02:30:38;5.60;;;2.30;;
32613;SDS011;19031;51.400;6.770;2023-02-28T02:39:23;6.38;;;1.77;;
32613;SDS011;19031;51.400;6.770;2023-02-28T02:41:54;2.90;;;1.63;;
32613;SDS011;19031;51.400;6.770;2023-02-28T02:44:30;3.72;;;1.80;;
32613;SDS011;19031;51.400;6.770;2023-02-28T02:47:12;1.30;;;1.10;;
32613;SDS011;19031;51.400;6.770;2023-02-28T02:49:42;4.85;;;2.10;;
32613;SDS011;19031;51.400;6.770;2023-02-28T02:52:12;2.78;;;1.30;;
32613;SDS011;19031;51.400;6.770;2023-02-28T02:54:42;2.28;;;1.75;;
32613;SDS011;19031;51.400;6.770;2023-02-28T02:57:15;2.67;;;2.10;;
32613;SDS011;19031;51.400;6.770;2023-02-28T02:59:46;3.42;;;1.80;;
32613;SDS011;19031;51.400;6.770;2023-02-28T03:02:14;5.18;;;1.92;;
32613;SDS011;19031;51.400;6.770;2023-02-28T03:04:43;3.13;;;1.33;;
32613;SDS011;19031;51.400;6.770;2023-02-28T03:07:13;4.93;;;2.28;;
32613;SDS011;19031;51.400;6.770;2023-02-28T03:09:39;3.50;;;1.88;;
32613;SDS011;19031;51.400;6.770;2023-02-28T03:12:04;4.80;;;2.15;;
32613;SDS011;19031;51.400;6.770;2023-02-28T03:20:14;3.58;;;1.60;;
32613;SDS011;19031;51.400;6.770;2023-02-28T03:31:19;4.13;;;1.65;;
32613;SDS011;19031;51.400;6.770;2023-02-28T03:33:54;2.75;;;1.35;;
32613;SDS011;19031;51.400;6.770;2023-02-28T03:36:30;5.18;;;1.83;;
32613;SDS011;19031;51.400;6.770;2023-02-28T03:39:31;2.40;;;1.42;;
32613;SDS011;19031;51.400;6.770;2023-02-28T03:42:14;2.75;;;1.58;;
32613;SDS011;19031;51.400;6.770;2023-02-28T03:44:44;2.50;;;1.25;;
32613;SDS011;19031;51.400;6.770;2023-02-28T03:47:21;4.22;;;1.50;;
32613;SDS011;19031;51.400;6.770;2023-02-28T03:49:59;2.92;;;1.30;;
32613;SDS011;19031;51.400;6.770;2023-02-28T03:52:38;3.00;;;1.65;;
32613;SDS011;19031;51.400;6.770;2023-02-28T03:55:12;1.88;;;1.25;;
32613;SDS011;19031;51.400;6.770;2023-02-28T04:00:45;3.53;;;1.40;;
32613;SDS011;19031;51.400;6.770;2023-02-28T04:03:13;6.95;;;2.17;;
32613;SDS011;19031;51.400;6.770;2023-02-28T04:05:54;3.08;;;1.48;;
32613;SDS011;19031;51.400;6.770;2023-02-28T04:08:22;3.75;;;1.48;;
32613;SDS011;19031;51.400;6.770;2023-02-28T04:10:50;6.32;;;1.70;;
32613;SDS011;19031;51.400;6.770;2023-02-28T04:13:29;1.27;;;0.95;;
32613;SDS011;19031;51.400;6.770;2023-02-28T04:15:54;6.07;;;1.50;;
32613;SDS011;19031;51.400;6.770;2023-02-28T04:18:20;5.88;;;2.65;;
32613;SDS011;19031;51.400;6.770;2023-02-28T04:20:45;2.38;;;1.30;;
32613;SDS011;19031;51.400;6.770;2023-02-28T04:23:11;4.00;;;1.48;;
32613;SDS011;19031;51.400;6.770;2023-02-28T04:25:36;2.50;;;1.40;;
32613;SDS011;19031;51.400;6.770;2023-02-28T04:28:02;3.13;;;2.00;;
32613;SDS011;19031;51.400;6.770;2023-02-28T04:30:28;5.03;;;1.88;;
32613;SDS011;19031;51.400;6.770;2023-02-28T04:32:54;4.18;;;1.52;;
32613;SDS011;19031;51.400;6.770;2023-02-28T04:35:20;4.88;;;2.08;;
32613;SDS011;19031;51.400;6.770;2023-02-28T04:37:45;3.67;;;1.83;;
32613;SDS011;19031;51.400;6.770;2023-02-28T04:40:11;1.60;;;1.10;;
32613;SDS011;19031;51.400;6.770;2023-02-28T04:42:36;2.95;;;1.55;;
32613;SDS011;19031;51.400;6.770;2023-02-28T04:45:02;12.93;;;2.80;;
32613;SDS011;19031;51.400;6.770;2023-02-28T04:47:29;3.05;;;1.90;;
32613;SDS011;19031;51.400;6.770;2023-02-28T04:49:54;2.03;;;1.33;;
32613;SDS011;19031;51.400;6.770;2023-02-28T04:52:20;4.05;;;2.45;;
32613;SDS011;19031;51.400;6.770;2023-02-28T04:54:46;4.38;;;2.20;;
32613;SDS011;19031;51.400;6.770;2023-02-28T04:57:11;1.20;;;1.05;;
32613;SDS011;19031;51.400;6.770;2023-02-28T04:59:37;4.97;;;2.03;;
32613;SDS011;19031;51.400;6.770;2023-02-28T05:02:03;1.67;;;1.15;;
32613;SDS011;19031;51.400;6.770;2023-02-28T05:04:32;2.38;;;1.35;;
32613;SDS011;19031;51.400;6.770;2023-02-28T05:06:59;2.10;;;1.52;;
32613;SDS011;19031;51.400;6.770;2023-02-28T05:09:25;5.95;;;1.98;;
32613;SDS011;19031;51.400;6.770;2023-02-28T05:11:51;5.70;;;2.10;;
32613;SDS011;19031;51.400;6.770;2023-02-28T05:14:16;3.40;;;1.77;;
32613;SDS011;19031;51.400;6.770;2023-02-28T05:16:42;2.33;;;1.15;;
32613;SDS011;19031;51.400;6.770;2023-02-28T05:19:08;4.88;;;2.60;;
32613;SDS011;19031;51.400;6.770;2023-02-28T05:21:40;3.95;;;2.20;;
32613;SDS011;19031;51.400;6.770;2023-02-28T05:24:14;2.38;;;1.35;;
32613;SDS011;19031;51.400;6.770;2023-02-28T05:26:40;4.65;;;1.95;;
32613;SDS011;19031;51.400;6.770;2023-02-28T05:29:07;4.40;;;1.85;;
32613;SDS011;19031;51.400;6.770;2023-02-28T05:31:34;3.40;;;1.58;;
32613;SDS011;19031;51.400;6.770;2023-02-28T05:34:00;3.15;;;1.67;;
32613;SDS011;19031;51.400;6.770;2023-02-28T05:36:25;3.67;;;1.13;;
32613;SDS011;19031;51.400;6.770;2023-02-28T05:38:51;2.67;;;1.55;;
32613;SDS011;19031;51.400;6.770;2023-02-28T05:41:17;2.03;;;1.10;;
32613;SDS011;19031;51.400;6.770;2023-02-28T05:43:44;5.32;;;1.80;;
32613;SDS011;19031;51.400;6.770;2023-02-28T05:46:10;3.90;;;1.75;;
32613;SDS011;19031;51.400;6.770;2023-02-28T05:48:37;5.00;;;1.92;;
32613;SDS011;19031;51.400;6.770;2023-02-28T05:51:04;3.22;;;1.48;;
32613;SDS011;19031;51.400;6.770;2023-02-28T05:53:31;9.80;;;1.80;;
32613;SDS011;19031;51.400;6.770;2023-02-28T05:55:57;4.00;;;1.60;;
32613;SDS011;19031;51.400;6.770;2023-02-28T05:58:23;6.85;;;1.38;;
32613;SDS011;19031;51.400;6.770;2023-02-28T06:00:54;3.97;;;1.05;;
32613;SDS011;19031;51.400;6.770;2023-02-28T06:03:19;2.03;;;1.33;;
32613;SDS011;19031;51.400;6.770;2023-02-28T06:05:45;2.25;;;1.45;;
32613;SDS011;19031;51.400;6.770;2023-02-28T06:08:10;2.60;;;1.33;;
32613;SDS011;19031;51.400;6.770;2023-02-28T06:10:36;2.00;;;1.15;;
32613;SDS011;19031;51.400;6.770;2023-02-28T06:13:03;2.55;;;1.27;;
32613;SDS011;19031;51.400;6.770;2023-02-28T06:15:29;2.05;;;1.08;;
32613;SDS011;19031;51.400;6.770;2023-02-28T06:17:55;1.27;;;0.90;;
32613;SDS011;19031;51.400;6.770;2023-02-28T06:20:21;1.58;;;1.10;;
32613;SDS011;19031;51.400;6.770;2023-02-28T06:22:48;3.70;;;1.95;;
32613;SDS011;19031;51.400;6.770;2023-02-28T06:25:15;2.03;;;1.30;;
32613;SDS011;19031;51.400;6.770;2023-02-28T06:27:40;4.72;;;1.23;;
32613;SDS011;19031;51.400;6.770;2023-02-28T06:30:06;1.25;;;0.82;;
32613;SDS011;19031;51.400;6.770;2023-02-28T06:32:32;4.15;;;1.92;;
32613;SDS011;19031;51.400;6.770;2023-02-28T06:34:58;4.57;;;1.45;;
32613;SDS011;19031;51.400;6.770;2023-02-28T06:37:23;8.30;;;2.33;;
32613;SDS011;19031;51.400;6.770;2023-02-28T06:39:52;1.77;;;1.15;;
32613;SDS011;19031;51.400;6.770;2023-02-28T06:42:20;3.10;;;1.35;;
32613;SDS011;19031;51.400;6.770;2023-02-28T06:44:54;3.13;;;1.15;;
32613;SDS011;19031;51.400;6.770;2023-02-28T06:47:20;2.10;;;1.08;;
32613;SDS011;19031;51.400;6.770;2023-02-28T06:49:46;3.05;;;1.52;;
32613;SDS011;19031;51.400;6.770;2023-02-28T06:52:11;2.47;;;1.23;;
32613;SDS011;19031;51.400;6.770;2023-02-28T06:54:37;3.78;;;1.60;;
32613;SDS011;19031;51.400;6.770;2023-02-28T06:57:03;1.95;;;1.30;;
32613;SDS011;19031;51.400;6.770;2023-02-28T06:59:28;3.70;;;1.20;;
32613;SDS011;19031;51.400;6.770;2023-02-28T07:01:54;5.50;;;1.20;;
32613;SDS011;19031;51.400;6.770;2023-02-28T07:04:20;3.00;;;1.02;;
32613;SDS011;19031;51.400;6.770;2023-02-28T07:06:46;5.75;;;1.00;;
32613;SDS011;19031;51.400;6.770;2023-02-28T07:09:12;5.18;;;2.83;;
32613;SDS011;19031;51.400;6.770;2023-02-28T07:11:38;2.72;;;1.40;;
32613;SDS011;19031;51.400;6.770;2023-02-28T07:14:05;4.53;;;1.60;;
32613;SDS011;19031;51.400;6.770;2023-02-28T07:16:32;1.60;;;1.25;;
32613;SDS011;19031;51.400;6.770;2023-02-28T07:18:58;3.85;;;1.58;;
32613;SDS011;19031;51.400;6.770;2023-02-28T07:21:24;2.40;;;1.27;;
32613;SDS011;19031;51.400;6.770;2023-02-28T07:23:49;1.50;;;1.00;;
32613;SDS011;19031;51.400;6.770;2023-02-28T07:26:17;2.95;;;1.45;;
32613;SDS011;19031;51.400;6.770;2023-02-28T07:28:44;2.30;;;1.02;;
32613;SDS011;19031;51.400;6.770;2023-02-28T07:31:11;2.35;;;1.60;;
32613;SDS011;19031;51.400;6.770;2023-02-28T07:33:39;2.85;;;1.08;;
32613;SDS011;19031;51.400;6.770;2023-02-28T07:36:10;2.47;;;1.83;;
32613;SDS011;19031;51.400;6.770;2023-02-28T07:38:40;3.67;;;1.75;;
32613;SDS011;19031;51.400;6.770;2023-02-28T07:41:07;10.25;;;2.17;;
32613;SDS011;19031;51.400;6.770;2023-02-28T07:43:33;4.15;;;1.58;;
32613;SDS011;19031;51.400;6.770;2023-02-28T07:46:06;3.90;;;1.40;;
32613;SDS011;19031;51.400;6.770;2023-02-28T07:48:35;1.23;;;0.70;;
32613;SDS011;19031;51.400;6.770;2023-02-28T07:51:01;1.73;;;1.13;;
32613;SDS011;19031;51.400;6.770;2023-02-28T07:53:27;9.60;;;1.40;;
32613;SDS011;19031;51.400;6.770;2023-02-28T07:55:57;4.30;;;1.20;;
32613;SDS011;19031;51.400;6.770;2023-02-28T07:58:23;2.17;;;0.98;;
32613;SDS011;19031;51.400;6.770;2023-02-28T08:00:50;3.58;;;1.05;;
32613;SDS011;19031;51.400;6.770;2023-02-28T08:03:17;5.25;;;1.70;;
32613;SDS011;19031;51.400;6.770;2023-02-28T08:05:44;1.75;;;1.10;;
32613;SDS011;19031;51.400;6.770;2023-02-28T08:08:09;2.05;;;1.20;;
32613;SDS011;19031;51.400;6.770;2023-02-28T08:10:35;3.60;;;1.17;;
32613;SDS011;19031;51.400;6.770;2023-02-28T08:13:01;1.63;;;1.13;;
32613;SDS011;19031;51.400;6.770;2023-02-28T08:15:26;1.30;;;0.82;;
32613;SDS011;19031;51.400;6.770;2023-02-28T08:17:52;3.20;;;1.35;;
32613;SDS011;19031;51.400;6.770;2023-02-28T08:20:18;2.22;;;1.42;;
32613;SDS011;19031;51.400;6.770;2023-02-28T08:22:44;8.13;;;1.73;;
32613;SDS011;19031;51.400;6.770;2023-02-28T08:25:09;2.15;;;1.23;;
32613;SDS011;19031;51.400;6.770;2023-02-28T08:27:35;2.67;;;1.50;;
32613;SDS011;19031;51.400;6.770;2023-02-28T08:30:02;2.75;;;1.50;;
32613;SDS011;19031;51.400;6.770;2023-02-28T08:32:28;4.60;;;1.40;;
32613;SDS011;19031;51.400;6.770;2023-02-28T08:34:53;5.85;;;1.70;;
32613;SDS011;19031;51.400;6.770;2023-02-28T08:37:19;3.40;;;1.38;;
32613;SDS011;19031;51.400;6.770;2023-02-28T08:39:45;2.78;;;1.75;;
32613;SDS011;19031;51.400;6.770;2023-02-28T08:42:10;2.63;;;1.63;;
32613;SDS011;19031;51.400;6.770;2023-02-28T08:44:36;1.95;;;1.20;;
32613;SDS011;19031;51.400;6.770;2023-02-28T08:47:02;2.90;;;1.38;;
32613;SDS011;19031;51.400;6.770;2023-02-28T08:49:27;3.70;;;1.70;;
32613;SDS011;19031;51.400;6.770;2023-02-28T08:51:53;2.45;;;1.10;;
32613;SDS011;19031;51.400;6.770;2023-02-28T08:54:20;7.65;;;1.52;;
32613;SDS011;19031;51.400;6.770;2023-02-28T08:56:47;1.80;;;1.35;;
32613;SDS011;19031;51.400;6.770;2023-02-28T08:59:13;3.78;;;1.50;;
32613;SDS011;19031;51.400;6.770;2023-02-28T09:01:39;2.05;;;0.98;;
32613;SDS011;19031;51.400;6.770;2023-02-28T09:04:06;2.13;;;1.30;;
32613;SDS011;19031;51.400;6.770;2023-02-28T09:06:33;10.63;;;2.42;;
32613;SDS011;19031;51.400;6.770;2023-02-28T09:08:59;3.83;;;1.60;;
32613;SDS011;19031;51.400;6.770;2023-02-28T09:11:26;3.35;;;1.10;;
32613;SDS011;19031;51.400;6.770;2023-02-28T09:13:52;4.10;;;1.00;;
32613;SDS011;19031;51.400;6.770;2023-02-28T09:16:20;2.13;;;1.35;;
32613;SDS011;19031;51.400;6.770;2023-02-28T09:18:46;2.25;;;1.25;;
32613;SDS011;19031;51.400;6.770;2023-02-28T09:21:12;2.05;;;0.98;;
32613;SDS011;19031;51.400;6.770;2023-02-28T09:23:41;2.65;;;1.00;;
32613;SDS011;19031;51.400;6.770;2023-02-28T09:26:15;2.17;;;0.88;;
32613;SDS011;19031;51.400;6.770;2023-02-28T09:28:43;1.40;;;0.73;;
32613;SDS011;19031;51.400;6.770;2023-02-28T09:31:12;0.90;;;0.65;;
32613;SDS011;19031;51.400;6.770;2023-02-28T09:33:39;2.05;;;1.35;;
32613;SDS011;19031;51.400;6.770;2023-02-28T09:36:05;2.03;;;0.95;;
32613;SDS011;19031;51.400;6.770;2023-02-28T09:38:31;1.98;;;1.20;;
32613;SDS011;19031;51.400;6.770;2023-02-28T09:40:58;2.10;;;0.90;;
32613;SDS011;19031;51.400;6.770;2023-02-28T09:43:27;7.10;;;1.05;;
32613;SDS011;19031;51.400;6.770;2023-02-28T09:48:48;1.48;;;0.77;;
32613;SDS011;19031;51.400;6.770;2023-02-28T09:53:58;1.40;;;0.63;;
32613;SDS011;19031;51.400;6.770;2023-02-28T09:56:25;0.85;;;0.65;;
32613;SDS011;19031;51.400;6.770;2023-02-28T09:59:01;1.42;;;0.85;;
32613;SDS011;19031;51.400;6.770;2023-02-28T10:01:30;2.72;;;0.93;;
32613;SDS011;19031;51.400;6.770;2023-02-28T10:06:39;1.15;;;0.68;;
32613;SDS011;19031;51.400;6.770;2023-02-28T10:09:33;0.90;;;0.80;;
32613;SDS011;19031;51.400;6.770;2023-02-28T10:12:03;3.05;;;1.00;;
32613;SDS011;19031;51.400;6.770;2023-02-28T10:14:30;2.45;;;1.10;;
32613;SDS011;19031;51.400;6.770;2023-02-28T10:19:32;1.38;;;0.70;;
32613;SDS011;19031;51.400;6.770;2023-02-28T10:22:10;3.63;;;1.02;;
32613;SDS011;19031;51.400;6.770;2023-02-28T10:24:43;3.42;;;0.80;;
32613;SDS011;19031;51.400;6.770;2023-02-28T10:27:23;1.30;;;1.10;;
32613;SDS011;19031;51.400;6.770;2023-02-28T10:32:30;2.65;;;0.85;;
32613;SDS011;19031;51.400;6.770;2023-02-28T10:37:42;2.00;;;0.50;;
32613;SDS011;19031;51.400;6.770;2023-02-28T10:42:57;1.80;;;0.80;;
32613;SDS011;19031;51.400;6.770;2023-02-28T10:45:29;0.90;;;0.50;;
32613;SDS011;19031;51.400;6.770;2023-02-28T10:48:23;2.50;;;0.75;;
32613;SDS011;19031;51.400;6.770;2023-02-28T10:50:43;0.73;;;0.60;;
32613;SDS011;19031;51.400;6.770;2023-02-28T10:56:01;1.75;;;0.82;;
32613;SDS011;19031;51.400;6.770;2023-02-28T11:01:38;0.88;;;0.60;;
32613;SDS011;19031;51.400;6.770;2023-02-28T11:07:01;2.63;;;1.00;;
32613;SDS011;19031;51.400;6.770;2023-02-28T11:09:38;0.60;;;0.50;;
32613;SDS011;19031;51.400;6.770;2023-02-28T11:12:19;0.73;;;0.43;;
32613;SDS011;19031;51.400;6.770;2023-02-28T11:14:52;1.10;;;0.63;;
32613;SDS011;19031;51.400;6.770;2023-02-28T11:17:27;0.45;;;0.45;;
32613;SDS011;19031;51.400;6.770;2023-02-28T11:19:59;0.47;;;0.40;;
32613;SDS011;19031;51.400;6.770;2023-02-28T11:22:33;2.30;;;1.05;;
32613;SDS011;19031;51.400;6.770;2023-02-28T11:25:06;0.77;;;0.70;;
32613;SDS011;19031;51.400;6.770;2023-02-28T11:27:47;2.13;;;0.60;;
32613;SDS011;19031;51.400;6.770;2023-02-28T11:32:50;1.23;;;1.00;;
32613;SDS011;19031;51.400;6.770;2023-02-28T11:35:36;1.27;;;0.77;;
32613;SDS011;19031;51.400;6.770;2023-02-28T11:38:05;1.95;;;0.70;;
32613;SDS011;19031;51.400;6.770;2023-02-28T11:43:35;0.80;;;0.45;;
32613;SDS011;19031;51.400;6.770;2023-02-28T11:49:05;2.33;;;1.00;;
32613;SDS011;19031;51.400;6.770;2023-02-28T11:54:35;1.55;;;0.50;;
32613;SDS011;19031;51.400;6.770;2023-02-28T12:00:01;1.17;;;0.77;;
32613;SDS011;19031;51.400;6.770;2023-02-28T12:05:49;2.28;;;0.70;;
32613;SDS011;19031;51.400;6.770;2023-02-28T12:21:44;7.88;;;1.05;;
32613;SDS011;19031;51.400;6.770;2023-02-28T12:27:00;1.33;;;0.80;;
32613;SDS011;19031;51.400;6.770;2023-02-28T12:29:34;1.27;;;0.70;;
32613;SDS011;19031;51.400;6.770;2023-02-28T12:32:16;1.52;;;0.63;;
32613;SDS011;19031;51.400;6.770;2023-02-28T12:34:48;1.23;;;0.90;;
32613;SDS011;19031;51.400;6.770;2023-02-28T12:38:04;1.17;;;0.77;;
32613;SDS011;19031;51.400;6.770;2023-02-28T12:40:20;1.83;;;0.80;;
32613;SDS011;19031;51.400;6.770;2023-02-28T12:42:55;1.75;;;0.90;;
32613;SDS011;19031;51.400;6.770;2023-02-28T12:45:40;4.13;;;1.00;;
32613;SDS011;19031;51.400;6.770;2023-02-28T12:48:14;1.77;;;0.90;;
32613;SDS011;19031;51.400;6.770;2023-02-28T12:50:45;5.80;;;0.90;;
32613;SDS011;19031;51.400;6.770;2023-02-28T12:53:22;1.52;;;0.95;;
32613;SDS011;19031;51.400;6.770;2023-02-28T12:58:56;1.90;;;0.88;;
32613;SDS011;19031;51.400;6.770;2023-02-28T13:01:43;1.10;;;0.80;;
32613;SDS011;19031;51.400;6.770;2023-02-28T13:09:39;2.08;;;1.08;;
32613;SDS011;19031;51.400;6.770;2023-02-28T13:12:14;2.72;;;0.90;;
32613;SDS011;19031;51.400;6.770;2023-02-28T13:14:41;1.90;;;1.13;;
32613;SDS011;19031;51.400;6.770;2023-02-28T13:19:37;1.95;;;1.05;;
32613;SDS011;19031;51.400;6.770;2023-02-28T13:22:04;6.40;;;1.20;;
32613;SDS011;19031;51.400;6.770;2023-02-28T13:29:32;3.10;;;1.20;;
32613;SDS011;19031;51.400;6.770;2023-02-28T13:34:33;2.50;;;1.27;;
32613;SDS011;19031;51.400;6.770;2023-02-28T13:39:47;1.90;;;0.90;;
32613;SDS011;19031;51.400;6.770;2023-02-28T13:42:51;3.15;;;1.17;;
32613;SDS011;19031;51.400;6.770;2023-02-28T13:55:20;2.15;;;1.38;;
32613;SDS011;19031;51.400;6.770;2023-02-28T14:05:42;3.03;;;1.50;;
32613;SDS011;19031;51.400;6.770;2023-02-28T14:08:14;1.42;;;0.90;;
32613;SDS011;19031;51.400;6.770;2023-02-28T14:10:47;1.67;;;1.05;;
32613;SDS011;19031;51.400;6.770;2023-02-28T14:16:09;1.65;;;1.27;;
32613;SDS011;19031;51.400;6.770;2023-02-28T14:18:38;1.80;;;1.10;;
32613;SDS011;19031;51.400;6.770;2023-02-28T14:21:20;3.50;;;1.33;;
32613;SDS011;19031;51.400;6.770;2023-02-28T14:29:23;1.35;;;1.25;;
32613;SDS011;19031;51.400;6.770;2023-02-28T14:37:50;1.58;;;1.20;;
32613;SDS011;19031;51.400;6.770;2023-02-28T14:40:22;2.03;;;1.15;;
32613;SDS011;19031;51.400;6.770;2023-02-28T14:42:57;4.53;;;1.60;;
32613;SDS011;19031;51.400;6.770;2023-02-28T14:45:29;2.72;;;1.50;;
32613;SDS011;19031;51.400;6.770;2023-02-28T14:47:57;2.05;;;1.42;;
32613;SDS011;19031;51.400;6.770;2023-02-28T14:50:26;2.60;;;1.40;;
32613;SDS011;19031;51.400;6.770;2023-02-28T14:52:55;2.67;;;1.58;;
32613;SDS011;19031;51.400;6.770;2023-02-28T14:55:32;1.33;;;1.02;;
32613;SDS011;19031;51.400;6.770;2023-02-28T14:58:01;1.75;;;1.40;;
32613;SDS011;19031;51.400;6.770;2023-02-28T15:00:32;3.05;;;1.67;;
32613;SDS011;19031;51.400;6.770;2023-02-28T15:03:00;2.50;;;1.65;;
32613;SDS011;19031;51.400;6.770;2023-02-28T15:05:42;2.00;;;1.30;;
32613;SDS011;19031;51.400;6.770;2023-02-28T15:08:15;2.38;;;1.27;;
32613;SDS011;19031;51.400;6.770;2023-02-28T15:11:24;1.75;;;1.25;;
32613;SDS011;19031;51.400;6.770;2023-02-28T15:13:39;1.65;;;1.08;;
32613;SDS011;19031;51.400;6.770;2023-02-28T15:16:15;2.55;;;1.00;;
32613;SDS011;19031;51.400;6.770;2023-02-28T15:21:19;1.98;;;1.08;;
32613;SDS011;19031;51.400;6.770;2023-02-28T15:23:49;1.50;;;0.95;;
32613;SDS011;19031;51.400;6.770;2023-02-28T15:26:19;2.50;;;1.33;;
32613;SDS011;19031;51.400;6.770;2023-02-28T15:28:49;3.08;;;1.35;;
32613;SDS011;19031;51.400;6.770;2023-02-28T15:31:27;7.15;;;1.58;;
32613;SDS011;19031;51.400;6.770;2023-02-28T15:33:57;2.33;;;1.30;;
32613;SDS011;19031;51.400;6.770;2023-02-28T15:36:29;2.42;;;1.55;;
32613;SDS011;19031;51.400;6.770;2023-02-28T15:38:58;3.08;;;1.17;;
32613;SDS011;19031;51.400;6.770;2023-02-28T15:41:31;2.20;;;1.33;;
32613;SDS011;19031;51.400;6.770;2023-02-28T15:44:14;1.40;;;1.00;;
32613;SDS011;19031;51.400;6.770;2023-02-28T15:46:56;2.65;;;1.10;;
32613;SDS011;19031;51.400;6.770;2023-02-28T15:49:23;2.25;;;1.38;;
32613;SDS011;19031;51.400;6.770;2023-02-28T15:51:50;2.78;;;1.65;;
32613;SDS011;19031;51.400;6.770;2023-02-28T15:54:22;2.80;;;1.33;;
32613;SDS011;19031;51.400;6.770;2023-02-28T15:56:52;5.45;;;1.35;;
32613;SDS011;19031;51.400;6.770;2023-02-28T15:59:21;1.77;;;1.33;;
32613;SDS011;19031;51.400;6.770;2023-02-28T16:04:53;2.08;;;1.50;;
32613;SDS011;19031;51.400;6.770;2023-02-28T16:07:21;1.33;;;1.10;;
32613;SDS011;19031;51.400;6.770;2023-02-28T16:09:46;1.67;;;0.90;;
32613;SDS011;19031;51.400;6.770;2023-02-28T16:12:13;4.32;;;1.20;;
32613;SDS011;19031;51.400;6.770;2023-02-28T16:14:38;1.40;;;0.98;;
32613;SDS011;19031;51.400;6.770;2023-02-28T16:17:06;2.80;;;1.67;;
32613;SDS011;19031;51.400;6.770;2023-02-28T16:19:35;2.00;;;1.38;;
32613;SDS011;19031;51.400;6.770;2023-02-28T16:22:00;2.25;;;1.10;;
32613;SDS011;19031;51.400;6.770;2023-02-28T16:24:26;1.73;;;1.30;;
32613;SDS011;19031;51.400;6.770;2023-02-28T16:26:52;2.55;;;1.58;;
32613;SDS011;19031;51.400;6.770;2023-02-28T16:29:33;4.05;;;1.50;;
32613;SDS011;19031;51.400;6.770;2023-02-28T16:32:04;1.67;;;1.00;;
32613;SDS011;19031;51.400;6.770;2023-02-28T16:34:30;1.33;;;1.00;;
32613;SDS011;19031;51.400;6.770;2023-02-28T16:36:56;3.22;;;1.17;;
32613;SDS011;19031;51.400;6.770;2023-02-28T16:39:21;3.25;;;1.33;;
32613;SDS011;19031;51.400;6.770;2023-02-28T16:41:47;2.05;;;1.10;;
32613;SDS011;19031;51.400;6.770;2023-02-28T16:44:24;3.08;;;1.08;;
32613;SDS011;19031;51.400;6.770;2023-02-28T16:46:56;4.30;;;1.80;;
32613;SDS011;19031;51.400;6.770;2023-02-28T16:49:24;2.20;;;1.27;;
32613;SDS011;19031;51.400;6.770;2023-02-28T16:51:50;3.30;;;1.17;;
32613;SDS011;19031;51.400;6.770;2023-02-28T16:54:16;2.83;;;1.52;;
32613;SDS011;19031;51.400;6.770;2023-02-28T16:56:43;1.42;;;0.93;;
32613;SDS011;19031;51.400;6.770;2023-02-28T16:59:11;3.05;;;2.00;;
32613;SDS011;19031;51.400;6.770;2023-02-28T17:01:37;3.30;;;1.45;;
32613;SDS011;19031;51.400;6.770;2023-02-28T17:04:03;1.88;;;1.30;;
32613;SDS011;19031;51.400;6.770;2023-02-28T17:06:29;1.85;;;1.20;;
32613;SDS011;19031;51.400;6.770;2023-02-28T17:08:55;3.05;;;1.48;;
32613;SDS011;19031;51.400;6.770;2023-02-28T17:11:21;3.17;;;1.40;;
32613;SDS011;19031;51.400;6.770;2023-02-28T17:13:47;3.50;;;2.00;;
32613;SDS011;19031;51.400;6.770;2023-02-28T17:16:19;4.40;;;1.67;;
32613;SDS011;19031;51.400;6.770;2023-02-28T17:18:58;4.70;;;2.05;;
32613;SDS011;19031;51.400;6.770;2023-02-28T17:21:25;6.75;;;1.67;;
32613;SDS011;19031;51.400;6.770;2023-02-28T17:23:52;2.22;;;1.67;;
32613;SDS011;19031;51.400;6.770;2023-02-28T17:26:18;2.15;;;1.10;;
32613;SDS011;19031;51.400;6.770;2023-02-28T17:28:46;1.38;;;1.17;;
32613;SDS011;19031;51.400;6.770;2023-02-28T17:31:12;8.05;;;2.03;;